Time;durP1;ratioP1;P1;durP2;ratioP2;P2;SDS_P1;SDS_P2;PMS_P1;PMS_P2;Temp;Humidity;BMP_temperature;BMP_pressure;BME280_temperature;BME280_humidity;BME280_pressure;Samples;Min_cycle;Max_cycle;Signal;HPM_P1;HPM_P2
2022/05/09 00:00:31;;;;;;;5.20;2.80;;;;;;101539.51;;;;107105;1276;65597;-35
2022/05/09 00:03:04;;;;;;;5.80;2.90;;;;;;101539.94;;;;107147;1276;65679;-35
2022/05/09 00:05:31;;;;;;;6.60;3.40;;;;;;101541.02;;;;107113;1276;66045;-34
2022/05/09 00:07:58;;;;;;;6.40;3.20;;;;;;101546.62;;;;107115;1276;64291;-35
2022/05/09 00:10:28;;;;;;;5.90;3.40;;;;;;101549.55;;;;107094;1276;65607;-35
2022/05/09 00:12:55;;;;;;;5.10;2.80;;;;;;101553.15;;;;107108;1276;65710;-32
2022/05/09 00:15:22;;;;;;;4.20;2.90;;;;;;101555.86;;;;107127;1276;65603;-31
2022/05/09 00:17:50;;;;;;;6.40;3.50;;;;;;101557.71;;;;107117;1276;68022;-31
2022/05/09 00:20:18;;;;;;;5.20;3.00;;;;;;101561.13;;;;107012;1276;65698;-31
2022/05/09 00:22:52;;;;;;;6.10;3.10;;;;;;101565.39;;;;107121;1277;65402;-36
2022/05/09 00:25:24;;;;;;;5.30;3.30;;;;;;101568.11;;;;107124;1276;65583;-35
2022/05/09 00:27:52;;;;;;;4.30;2.60;;;;;;101571.20;;;;107126;1276;65695;-35
2022/05/09 00:30:21;;;;;;;6.10;3.10;;;;;;101573.13;;;;107144;1276;66052;-35
2022/05/09 00:32:49;;;;;;;6.00;2.90;;;;;;101576.53;;;;107119;1276;65583;-33
2022/05/09 00:35:16;;;;;;;6.10;3.10;;;;;;101580.77;;;;107099;1276;65664;-35
2022/05/09 00:37:43;;;;;;;4.50;2.80;;;;;;101583.54;;;;107109;1276;65697;-35
2022/05/09 00:40:13;;;;;;;6.10;3.10;;;;;;101583.95;;;;107035;1276;65669;-35
2022/05/09 00:42:52;;;;;;;5.30;3.10;;;;;;101586.48;;;;107124;1276;67006;-31
2022/05/09 00:45:23;;;;;;;6.00;2.80;;;;;;101588.41;;;;107120;1276;65544;-31
2022/05/09 00:47:51;;;;;;;5.10;2.80;;;;;;101585.73;;;;107098;1276;65649;-34
2022/05/09 00:50:25;;;;;;;4.80;2.80;;;;;;101593.05;;;;106994;1276;65700;-34
2022/05/09 00:53:02;;;;;;;4.80;2.70;;;;;;101598.13;;;;107039;1276;64272;-31
2022/05/09 00:55:45;;;;;;;5.00;3.10;;;;;;101600.50;;;;107115;1276;67413;-31
2022/05/09 00:58:28;;;;;;;4.40;2.80;;;;;;101603.48;;;;107012;1276;65552;-34
2022/05/09 01:00:57;;;;;;;5.20;2.90;;;;;;101604.98;;;;107113;1276;65561;-34
2022/05/09 01:03:36;;;;;;;5.50;3.10;;;;;;101605.14;;;;107114;1276;65696;-34
2022/05/09 01:06:03;;;;;;;5.80;3.00;;;;;;101609.19;;;;106984;1277;65694;-35
2022/05/09 01:08:34;;;;;;;5.30;2.90;;;;;;101608.63;;;;107037;1276;66803;-34
2022/05/09 01:11:09;;;;;;;4.70;2.70;;;;;;101611.73;;;;107106;1276;65695;-34
2022/05/09 01:13:47;;;;;;;4.80;3.00;;;;;;101613.05;;;;107086;1277;65775;-34
2022/05/09 01:16:17;;;;;;;5.80;2.90;;;;;;101616.02;;;;107091;1276;65580;-34
2022/05/09 01:18:44;;;;;;;5.00;2.70;;;;;;101617.23;;;;107143;1276;65704;-35
2022/05/09 01:21:40;;;;;;;4.60;2.70;;;;;;101619.13;;;;107014;1277;67221;-34
2022/05/09 01:24:21;;;;;;;5.00;2.60;;;;;;101619.68;;;;107095;1276;65598;-34
2022/05/09 01:26:49;;;;;;;4.60;2.60;;;;;;101624.81;;;;107112;1276;65665;-34
2022/05/09 01:29:28;;;;;;;4.80;2.90;;;;;;101622.17;;;;107032;1276;65726;-34
2022/05/09 01:31:56;;;;;;;4.60;2.60;;;;;;101622.38;;;;107027;1276;65596;-32
2022/05/09 01:34:24;;;;;;;4.70;2.70;;;;;;101620.77;;;;107038;1276;66953;-31
2022/05/09 01:36:58;;;;;;;4.90;2.60;;;;;;101623.34;;;;106991;1276;65671;-32
2022/05/09 01:39:25;;;;;;;4.70;2.60;;;;;;101622.93;;;;106990;1276;65616;-31
2022/05/09 01:41:52;;;;;;;4.90;2.70;;;;;;101621.17;;;;107079;1276;65576;-33
2022/05/09 01:44:19;;;;;;;4.40;2.70;;;;;;101625.75;;;;107140;1276;65666;-34
2022/05/09 01:49:35;;;;;;;4.80;2.80;;;;;;101630.50;;;;107027;1276;65697;-32
2022/05/09 01:52:07;;;;;;;4.70;2.60;;;;;;101633.51;;;;107082;1276;65813;-35
2022/05/09 01:54:36;;;;;;;5.00;2.70;;;;;;101636.73;;;;107105;1276;65820;-32
2022/05/09 01:57:04;;;;;;;5.40;2.70;;;;;;101637.39;;;;107160;1276;65569;-35
2022/05/09 01:59:31;;;;;;;4.30;2.60;;;;;;101638.36;;;;107163;1277;66774;-35
2022/05/09 02:02:14;;;;;;;4.40;2.30;;;;;;101641.88;;;;107107;1276;65678;-34
2022/05/09 02:04:41;;;;;;;5.10;2.90;;;;;;101637.98;;;;107093;1276;65579;-35
2022/05/09 02:07:14;;;;;;;5.10;2.60;;;;;;101641.30;;;;107043;1276;66127;-35
2022/05/09 02:09:45;;;;;;;4.00;2.30;;;;;;101641.38;;;;107129;1276;65656;-34
2022/05/09 02:12:14;;;;;;;5.30;2.80;;;;;;101644.95;;;;107160;1276;68864;-31
2022/05/09 02:14:41;;;;;;;4.20;2.40;;;;;;101645.29;;;;107036;1276;65598;-31
2022/05/09 02:17:10;;;;;;;4.40;2.50;;;;;;101645.21;;;;107112;1276;65805;-33
2022/05/09 02:19:38;;;;;;;4.70;2.60;;;;;;101649.42;;;;107120;1276;65672;-34
2022/05/09 02:22:06;;;;;;;4.10;2.20;;;;;;101653.02;;;;107153;1276;65592;-31
2022/05/09 02:24:33;;;;;;;4.30;2.50;;;;;;101650.88;;;;107133;1276;66090;-31
2022/05/09 02:27:01;;;;;;;4.30;2.70;;;;;;101653.22;;;;107103;1276;65687;-34
2022/05/09 02:29:31;;;;;;;4.10;2.10;;;;;;101657.45;;;;107110;1276;65621;-36
2022/05/09 02:31:59;;;;;;;4.50;2.20;;;;;;101657.83;;;;107135;1276;65571;-32
2022/05/09 02:34:26;;;;;;;4.10;2.30;;;;;;101661.00;;;;107151;1276;65592;-31
2022/05/09 02:36:53;;;;;;;4.60;2.80;;;;;;101663.69;;;;107120;1276;66867;-32
2022/05/09 02:39:21;;;;;;;4.30;2.60;;;;;;101668.77;;;;107102;1276;65636;-31
2022/05/09 02:41:48;;;;;;;4.30;2.50;;;;;;101669.63;;;;107027;1276;65546;-31
2022/05/09 02:44:15;;;;;;;4.30;2.30;;;;;;101670.40;;;;107110;1276;65670;-35
2022/05/09 02:46:43;;;;;;;4.30;2.20;;;;;;101670.77;;;;107146;1276;64376;-35
2022/05/09 02:49:11;;;;;;;5.20;2.50;;;;;;101672.48;;;;107128;1276;66008;-34
2022/05/09 02:51:38;;;;;;;3.80;2.20;;;;;;101673.96;;;;107001;1277;65697;-36
2022/05/09 02:54:05;;;;;;;4.30;2.40;;;;;;101673.95;;;;107101;1276;66671;-31
2022/05/09 02:56:33;;;;;;;4.30;2.50;;;;;;101677.75;;;;107026;1276;65817;-32
2022/05/09 02:59:00;;;;;;;4.40;2.40;;;;;;101685.05;;;;107090;1276;65778;-34
2022/05/09 03:01:27;;;;;;;4.10;2.40;;;;;;101688.30;;;;107108;1276;65583;-34
2022/05/09 03:06:40;;;;;;;4.50;2.50;;;;;;101693.30;;;;107082;1276;65710;-34
2022/05/09 03:09:07;;;;;;;4.40;2.50;;;;;;101694.35;;;;107028;1276;65712;-31
2022/05/09 03:11:34;;;;;;;4.20;2.10;;;;;;101698.88;;;;107147;1276;65602;-31
2022/05/09 03:14:02;;;;;;;4.00;2.30;;;;;;101701.63;;;;106967;1277;66894;-33
2022/05/09 03:16:29;;;;;;;4.30;2.40;;;;;;101697.02;;;;107098;1275;65598;-33
2022/05/09 03:18:56;;;;;;;4.40;2.40;;;;;;101704.51;;;;107117;1276;66635;-31
2022/05/09 03:21:24;;;;;;;4.50;2.00;;;;;;101703.23;;;;107013;1276;65788;-31
2022/05/09 03:23:51;;;;;;;4.40;2.50;;;;;;101705.88;;;;107040;1276;65545;-32
2022/05/09 03:26:19;;;;;;;4.00;2.10;;;;;;101703.10;;;;107132;1276;67260;-31
2022/05/09 03:28:46;;;;;;;4.00;2.30;;;;;;101707.52;;;;107093;1276;65564;-34
2022/05/09 03:31:13;;;;;;;4.10;2.20;;;;;;101712.88;;;;107096;1276;65670;-34
2022/05/09 03:33:41;;;;;;;3.60;2.00;;;;;;101714.80;;;;107154;1276;65578;-36
2022/05/09 03:36:08;;;;;;;4.00;2.20;;;;;;101716.83;;;;107132;1276;65676;-34
2022/05/09 03:38:38;;;;;;;4.40;2.30;;;;;;101720.25;;;;107021;1276;67262;-31
2022/05/09 03:41:06;;;;;;;4.80;2.40;;;;;;101722.71;;;;107118;1276;65676;-31
2022/05/09 03:43:34;;;;;;;3.90;2.20;;;;;;101729.43;;;;107119;1275;65647;-33
2022/05/09 03:46:02;;;;;;;4.20;2.30;;;;;;101732.16;;;;107124;1276;65658;-34
2022/05/09 03:48:29;;;;;;;3.80;2.20;;;;;;101739.30;;;;107036;1276;65620;-31
2022/05/09 03:50:56;;;;;;;3.60;2.00;;;;;;101741.95;;;;107110;1276;67336;-32
2022/05/09 03:53:24;;;;;;;3.80;2.00;;;;;;101743.25;;;;107150;1276;65576;-43
2022/05/09 03:55:52;;;;;;;3.70;2.00;;;;;;101746.02;;;;107108;1276;65786;-34
2022/05/09 03:58:20;;;;;;;4.90;2.40;;;;;;101748.35;;;;107116;1276;65612;-45
2022/05/09 04:00:47;;;;;;;3.90;2.00;;;;;;101750.00;;;;107130;1277;65743;-34
2022/05/09 04:03:15;;;;;;;4.50;2.10;;;;;;101754.35;;;;107027;1276;68523;-31
2022/05/09 04:05:42;;;;;;;4.10;2.20;;;;;;101757.45;;;;107009;1276;65678;-31
2022/05/09 04:08:16;;;;;;;4.20;2.00;;;;;;101756.73;;;;107119;1276;65576;-35
2022/05/09 04:10:44;;;;;;;3.70;1.90;;;;;;101757.77;;;;107080;1276;65835;-34
2022/05/09 04:13:13;;;;;;;4.80;2.50;;;;;;101756.64;;;;107065;1276;65551;-42
2022/05/09 04:18:42;;;;;;;3.40;1.90;;;;;;101763.88;;;;106916;1276;65704;-31
2022/05/09 04:21:12;;;;;;;4.60;2.20;;;;;;101762.90;;;;107037;1276;65566;-31
2022/05/09 04:23:40;;;;;;;3.90;2.00;;;;;;101761.90;;;;107100;1276;65608;-31
2022/05/09 04:26:07;;;;;;;4.90;2.20;;;;;;101764.17;;;;107165;1276;65695;-31
2022/05/09 04:28:34;;;;;;;4.10;2.00;;;;;;101763.73;;;;107136;1276;66810;-41
2022/05/09 04:31:02;;;;;;;6.20;2.50;;;;;;101767.73;;;;107014;1276;65593;-34
2022/05/09 04:33:30;;;;;;;4.40;2.20;;;;;;101770.67;;;;107024;1276;65667;-31
2022/05/09 04:35:58;;;;;;;4.60;2.30;;;;;;101772.37;;;;107108;1276;65676;-31
2022/05/09 04:38:26;;;;;;;6.00;2.80;;;;;;101775.67;;;;107130;1276;66784;-34
2022/05/09 04:40:56;;;;;;;5.20;2.60;;;;;;101774.96;;;;107041;1276;65846;-34
2022/05/09 04:43:28;;;;;;;5.20;2.50;;;;;;101778.13;;;;107114;1276;65704;-35
2022/05/09 04:45:59;;;;;;;5.40;2.90;;;;;;101778.84;;;;107055;1276;65884;-34
2022/05/09 04:48:27;;;;;;;5.20;2.60;;;;;;101779.02;;;;107131;1276;65710;-34
2022/05/09 04:50:54;;;;;;;5.80;2.90;;;;;;101779.22;;;;107030;1276;65686;-34
2022/05/09 04:53:22;;;;;;;6.10;3.30;;;;;;101782.24;;;;107035;1276;67021;-35
2022/05/09 04:55:49;;;;;;;7.80;3.00;;;;;;101780.84;;;;107124;1276;66119;-33
2022/05/09 04:58:20;;;;;;;6.80;2.90;;;;;;101787.48;;;;107093;1276;65575;-34
2022/05/09 05:00:48;;;;;;;5.90;3.30;;;;;;101786.77;;;;107096;1276;65589;-34
2022/05/09 05:03:15;;;;;;;6.60;3.00;;;;;;101789.82;;;;107133;1277;66870;-35
2022/05/09 05:05:43;;;;;;;6.00;3.00;;;;;;101791.77;;;;106987;1277;68018;-41
2022/05/09 05:08:14;;;;;;;5.80;3.20;;;;;;101793.10;;;;107055;1276;65756;-44
2022/05/09 05:10:42;;;;;;;7.20;3.30;;;;;;101794.14;;;;107120;1276;65583;-39
2022/05/09 05:13:12;;;;;;;7.10;3.10;;;;;;101799.70;;;;107115;1276;65766;-35
2022/05/09 05:15:39;;;;;;;6.20;2.70;;;;;;101801.10;;;;107140;1276;65726;-40
2022/05/09 05:18:07;;;;;;;7.30;2.90;;;;;;101802.77;;;;107137;1276;66076;-32
2022/05/09 05:20:35;;;;;;;6.40;3.30;;;;;;101801.89;;;;107096;1276;65675;-31
2022/05/09 05:23:03;;;;;;;5.30;2.80;;;;;;101809.11;;;;107101;1277;65586;-35
2022/05/09 05:25:30;;;;;;;6.40;3.00;;;;;;101807.23;;;;107023;1277;65659;-35
2022/05/09 05:27:58;;;;;;;7.00;3.20;;;;;;101808.79;;;;107150;1276;65580;-32
2022/05/09 05:30:25;;;;;;;6.20;3.10;;;;;;101809.47;;;;107127;1276;66845;-32
2022/05/09 05:32:55;;;;;;;6.60;3.10;;;;;;101811.41;;;;107123;1275;65664;-35
2022/05/09 05:35:24;;;;;;;7.00;3.50;;;;;;101817.27;;;;106974;1276;65646;-34
2022/05/09 05:37:52;;;;;;;6.20;3.00;;;;;;101815.80;;;;107140;1276;65699;-35
2022/05/09 05:40:19;;;;;;;6.40;3.40;;;;;;101817.73;;;;106991;1276;65600;-35
2022/05/09 05:42:52;;;;;;;6.10;3.10;;;;;;101819.93;;;;106831;1276;68760;-35
2022/05/09 05:45:22;;;;;;;7.00;3.20;;;;;;101821.66;;;;107093;1276;65659;-34
2022/05/09 05:47:51;;;;;;;6.80;3.40;;;;;;101829.73;;;;107002;1277;65651;-31
2022/05/09 05:50:22;;;;;;;5.80;2.80;;;;;;101831.27;;;;107033;1277;65699;-32
2022/05/09 05:52:50;;;;;;;5.70;3.00;;;;;;101831.25;;;;107155;1277;65645;-36
2022/05/09 05:55:19;;;;;;;6.10;2.80;;;;;;101830.81;;;;107134;1276;65703;-35
2022/05/09 05:57:47;;;;;;;6.90;3.10;;;;;;101831.55;;;;107043;1276;65687;-36
2022/05/09 06:00:21;;;;;;;6.50;3.00;;;;;;101835.65;;;;107093;1277;65652;-35
2022/05/09 06:02:50;;;;;;;6.90;3.20;;;;;;101839.03;;;;107125;1276;65695;-40
2022/05/09 06:05:19;;;;;;;6.50;2.70;;;;;;101837.66;;;;107085;1276;65576;-32
2022/05/09 06:07:52;;;;;;;6.50;3.10;;;;;;101837.89;;;;107150;1276;66235;-32
2022/05/09 06:10:20;;;;;;;7.20;3.30;;;;;;101835.84;;;;107021;1276;65570;-34
2022/05/09 06:12:47;;;;;;;6.00;2.60;;;;;;101834.19;;;;107094;1277;65584;-35
2022/05/09 06:15:25;;;;;;;6.70;2.80;;;;;;101836.77;;;;107103;1277;65592;-36
2022/05/09 06:17:53;;;;;;;6.10;3.10;;;;;;101839.05;;;;107081;1276;65572;-35
2022/05/09 06:20:21;;;;;;;6.90;3.00;;;;;;101839.98;;;;107026;1276;65962;-35
2022/05/09 06:22:49;;;;;;;6.60;2.60;;;;;;101843.20;;;;107150;1276;65724;-36
2022/05/09 06:25:19;;;;;;;6.40;2.70;;;;;;101851.48;;;;107091;1276;65580;-35
2022/05/09 06:27:47;;;;;;;5.40;2.70;;;;;;101850.15;;;;107004;1276;65708;-33
2022/05/09 06:30:17;;;;;;;6.60;2.80;;;;;;101850.55;;;;107142;1276;64828;-35
2022/05/09 06:32:45;;;;;;;7.20;2.90;;;;;;101852.39;;;;106983;1276;67285;-34
2022/05/09 06:35:20;;;;;;;6.30;2.80;;;;;;101853.41;;;;106995;1276;65599;-35
2022/05/09 06:37:49;;;;;;;6.90;2.80;;;;;;101857.58;;;;107137;1276;65580;-32
2022/05/09 06:40:17;;;;;;;7.00;2.80;;;;;;101856.94;;;;107111;1276;65591;-31
2022/05/09 06:42:46;;;;;;;7.50;2.90;;;;;;101860.77;;;;107158;1276;65762;-36
2022/05/09 06:45:14;;;;;;;8.90;2.70;;;;;;101862.86;;;;107117;1276;67100;-32
2022/05/09 06:47:50;;;;;;;5.80;2.70;;;;;;101859.73;;;;107081;1276;65567;-32
2022/05/09 06:50:21;;;;;;;7.20;2.90;;;;;;101860.08;;;;106956;1276;65608;-33
2022/05/09 06:52:48;;;;;;;6.40;2.80;;;;;;101856.42;;;;107131;1276;66473;-31
2022/05/09 06:55:15;;;;;;;7.00;2.90;;;;;;101859.17;;;;107108;1276;65610;-31
2022/05/09 06:57:45;;;;;;;8.00;2.80;;;;;;101862.25;;;;107144;1276;66803;-34
2022/05/09 07:00:18;;;;;;;7.50;3.70;;;;;;101862.39;;;;107049;1276;65589;-35
2022/05/09 07:02:45;;;;;;;7.50;2.80;;;;;;101861.11;;;;107136;1276;65698;-34
2022/05/09 07:05:16;;;;;;;6.20;2.50;;;;;;101864.48;;;;107129;1276;65581;-35
2022/05/09 07:07:44;;;;;;;6.80;2.90;;;;;;101864.58;;;;107138;1276;65595;-32
2022/05/09 07:10:14;;;;;;;6.90;2.70;;;;;;101864.26;;;;107148;1276;66704;-32
2022/05/09 07:12:54;;;;;;;6.60;3.00;;;;;;101870.33;;;;107084;1277;65684;-31
2022/05/09 07:15:28;;;;;;;8.10;3.40;;;;;;101870.58;;;;107127;1276;65584;-34
2022/05/09 07:17:58;;;;;;;6.90;2.90;;;;;;101871.41;;;;107132;1276;65602;-35
2022/05/09 07:20:31;;;;;;;6.60;2.50;;;;;;101870.98;;;;107134;1276;65694;-35
2022/05/09 07:23:10;;;;;;;6.70;2.70;;;;;;101870.91;;;;107067;1277;67998;-31
2022/05/09 07:25:39;;;;;;;6.80;2.70;;;;;;101875.34;;;;107116;1276;65699;-31
2022/05/09 07:28:09;;;;;;;8.50;2.80;;;;;;101877.49;;;;107121;1276;65694;-35
2022/05/09 07:30:36;;;;;;;6.40;2.50;;;;;;101875.45;;;;106893;1276;65693;-33
2022/05/09 07:33:05;;;;;;;10.10;2.90;;;;;;101874.77;;;;107109;1277;65720;-31
2022/05/09 07:35:32;;;;;;;6.30;2.80;;;;;;101873.54;;;;107143;1277;68461;-31
2022/05/09 07:37:59;;;;;;;8.70;3.10;;;;;;101874.90;;;;106941;1276;65485;-35
2022/05/09 07:40:27;;;;;;;9.30;2.90;;;;;;101875.65;;;;107029;1276;65736;-33
2022/05/09 07:42:54;;;;;;;6.60;2.30;;;;;;101888.60;;;;107096;1276;65687;-34
2022/05/09 07:45:21;;;;;;;9.80;3.10;;;;;;101889.80;;;;107121;1276;65605;-34
2022/05/09 07:47:48;;;;;;;7.20;3.00;;;;;;101886.92;;;;107085;1276;67270;-34
2022/05/09 07:50:17;;;;;;;7.00;2.30;;;;;;101878.69;;;;107114;1276;65564;-34
2022/05/09 07:52:45;;;;;;;7.60;2.80;;;;;;101874.65;;;;106966;1276;66651;-31
2022/05/09 07:55:17;;;;;;;7.20;3.20;;;;;;101883.55;;;;107088;1276;65716;-32
2022/05/09 07:57:44;;;;;;;7.10;2.10;;;;;;101880.04;;;;107136;1275;65701;-34
2022/05/09 08:00:13;;;;;;;6.00;2.70;;;;;;101876.64;;;;107141;1276;66948;-32
2022/05/09 08:02:41;;;;;;;6.10;2.60;;;;;;101872.50;;;;107141;1276;65713;-32
2022/05/09 08:05:10;;;;;;;9.20;2.50;;;;;;101869.52;;;;107121;1276;65643;-31
2022/05/09 08:07:39;;;;;;;5.40;2.40;;;;;;101870.18;;;;107070;1276;65809;-35
2022/05/09 08:10:25;;;;;;;6.90;2.20;;;;;;101877.47;;;;107022;1276;65585;-33
2022/05/09 08:12:52;;;;;;;5.20;2.40;;;;;;101870.45;;;;107402;1264;87658;-33
2022/05/09 08:15:20;;;;;;;6.20;2.30;;;;;;101867.02;;;;107236;1274;65657;-35
2022/05/09 08:17:49;;;;;;;6.10;2.00;;;;;;101865.52;;;;107266;1274;65541;-32
2022/05/09 08:20:17;;;;;;;5.60;1.80;;;;;;101870.48;;;;107200;1274;65586;-31
2022/05/09 08:22:45;;;;;;;5.00;2.10;;;;;;101872.52;;;;107262;1274;65594;-34
2022/05/09 08:25:15;;;;;;;6.70;2.60;;;;;;101869.64;;;;107284;1274;66971;-35
2022/05/09 08:27:42;;;;;;;5.70;2.10;;;;;;101869.08;;;;107268;1274;65662;-31
2022/05/09 08:30:11;;;;;;;5.90;2.10;;;;;;101863.78;;;;107226;1273;65577;-30
2022/05/09 08:32:39;;;;;;;6.10;2.20;;;;;;101862.98;;;;107235;1274;65605;-35
2022/05/09 08:35:08;;;;;;;5.10;2.10;;;;;;101861.55;;;;107236;1274;65563;-33
2022/05/09 08:37:35;;;;;;;5.40;2.00;;;;;;101858.14;;;;107229;1274;66928;-31
2022/05/09 08:40:04;;;;;;;4.80;2.40;;;;;;101864.25;;;;107193;1274;65614;-32
2022/05/09 08:42:56;;;;;;;4.80;1.90;;;;;;101870.29;;;;107242;1274;65554;-30
2022/05/09 08:45:32;;;;;;;4.60;1.90;;;;;;101867.77;;;;107206;1274;65651;-31
2022/05/09 08:48:28;;;;;;;5.30;1.90;;;;;;101860.34;;;;107235;1272;65750;-35
2022/05/09 08:51:05;;;;;;;6.60;2.40;;;;;;101853.67;;;;107208;1274;68720;-29
2022/05/09 08:53:42;;;;;;;4.80;1.60;;;;;;101862.02;;;;107253;1274;65711;-32
2022/05/09 08:56:14;;;;;;;5.10;1.90;;;;;;101858.25;;;;107457;1272;65697;-33
2022/05/09 08:58:58;;;;;;;4.60;1.80;;;;;;101859.54;;;;107246;1274;65710;-34
2022/05/09 09:01:52;;;;;;;4.90;1.90;;;;;;101859.05;;;;107218;1274;65633;-39
2022/05/09 09:04:28;;;;;;;6.10;2.20;;;;;;101860.00;;;;107187;1274;67032;-37
2022/05/09 09:07:15;;;;;;;5.00;1.80;;;;;;101859.94;;;;107147;1274;65691;-31
2022/05/09 09:10:18;;;;;;;3.80;1.40;;;;;;101855.56;;;;107274;1271;65675;-35
2022/05/09 09:12:58;;;;;;;5.00;1.60;;;;;;101857.05;;;;107170;1274;65724;-34
2022/05/09 09:16:11;;;;;;;5.00;1.70;;;;;;101858.41;;;;107217;1274;65580;-40
2022/05/09 09:19:18;;;;;;;4.30;1.50;;;;;;101860.70;;;;107008;1273;67710;-29
2022/05/09 09:22:03;;;;;;;4.10;1.60;;;;;;101861.92;;;;107237;1274;65709;-31
2022/05/09 09:25:01;;;;;;;6.50;1.70;;;;;;101861.95;;;;107248;1274;65758;-32
2022/05/09 09:27:49;;;;;;;3.50;1.70;;;;;;101863.30;;;;107205;1273;65793;-31
2022/05/09 09:30:21;;;;;;;5.90;1.60;;;;;;101861.30;;;;107232;1274;65594;-32
2022/05/09 09:32:58;;;;;;;3.90;1.60;;;;;;101864.14;;;;107276;1274;67884;-32
2022/05/09 09:36:04;;;;;;;4.50;1.80;;;;;;101861.52;;;;107235;1271;65671;-36
2022/05/09 09:38:55;;;;;;;5.10;1.80;;;;;;101863.92;;;;107214;1274;65569;-31
2022/05/09 09:41:30;;;;;;;4.40;1.70;;;;;;101864.59;;;;107249;1273;65822;-30
2022/05/09 09:44:20;;;;;;;5.70;1.50;;;;;;101857.67;;;;107252;1274;65698;-31
2022/05/09 09:47:27;;;;;;;4.00;1.60;;;;;;101866.02;;;;107215;1274;67707;-40
2022/05/09 09:50:20;;;;;;;4.50;1.50;;;;;;101856.41;;;;107220;1274;64381;-30
2022/05/09 09:52:59;;;;;;;3.30;1.40;;;;;;101856.19;;;;107211;1274;65576;-32
2022/05/09 09:55:37;;;;;;;5.80;1.90;;;;;;101853.18;;;;107235;1274;65598;-31
2022/05/09 09:58:27;;;;;;;6.10;1.80;;;;;;101848.73;;;;107251;1274;65713;-32
2022/05/09 10:01:22;;;;;;;3.90;1.50;;;;;;101854.38;;;;107252;1274;66687;-32
2022/05/09 10:04:09;;;;;;;6.10;1.60;;;;;;101845.44;;;;107141;1274;66037;-32
2022/05/09 10:07:32;;;;;;;5.60;1.70;;;;;;101844.44;;;;107249;1274;65553;-33
2022/05/09 10:10:12;;;;;;;5.00;1.40;;;;;;101848.91;;;;107243;1274;65730;-32
2022/05/09 10:12:50;;;;;;;4.10;1.50;;;;;;101850.08;;;;107255;1274;66151;-31
2022/05/09 10:15:35;;;;;;;4.50;1.50;;;;;;101841.97;;;;107210;1274;68121;-32
2022/05/09 10:18:21;;;;;;;4.30;1.70;;;;;;101844.67;;;;107224;1274;65694;-32
2022/05/09 10:20:51;;;;;;;4.80;1.50;;;;;;101848.00;;;;107148;1274;65787;-33
2022/05/09 10:26:27;;;;;;;5.40;1.50;;;;;;101828.94;;;;107252;1271;65748;-31
2022/05/09 10:29:07;;;;;;;4.50;1.30;;;;;;101830.58;;;;107245;1274;67885;-32
2022/05/09 10:31:42;;;;;;;3.60;1.50;;;;;;101828.13;;;;107266;1274;65848;-32
2022/05/09 10:34:22;;;;;;;4.60;1.50;;;;;;101825.94;;;;107225;1271;65707;-32
2022/05/09 10:37:00;;;;;;;4.00;1.20;;;;;;101825.80;;;;107230;1274;66291;-32
2022/05/09 10:39:35;;;;;;;5.90;1.40;;;;;;101823.65;;;;107214;1274;65701;-31
2022/05/09 10:42:10;;;;;;;5.60;1.60;;;;;;101820.55;;;;107142;1273;66880;-33
2022/05/09 10:44:44;;;;;;;4.20;1.40;;;;;;101817.41;;;;107154;1274;65552;-33
2022/05/09 10:47:33;;;;;;;3.60;1.30;;;;;;101823.06;;;;107236;1272;65724;-33
2022/05/09 10:50:21;;;;;;;6.90;1.50;;;;;;101811.08;;;;107190;1274;65577;-32
2022/05/09 10:53:11;;;;;;;5.50;1.40;;;;;;101813.48;;;;107223;1274;65691;-32
2022/05/09 10:55:44;;;;;;;5.10;1.40;;;;;;101813.52;;;;107218;1274;68039;-32
2022/05/09 10:58:27;;;;;;;4.60;1.20;;;;;;101812.80;;;;107225;1274;65796;-34
2022/05/09 11:01:42;;;;;;;5.50;1.30;;;;;;101806.35;;;;107223;1274;65722;-32
2022/05/09 11:04:10;;;;;;;4.60;1.20;;;;;;101800.36;;;;107172;1273;65599;-34
2022/05/09 11:06:40;;;;;;;3.90;1.20;;;;;;101802.83;;;;107247;1274;65686;-31
2022/05/09 11:09:19;;;;;;;6.30;1.20;;;;;;101799.66;;;;107247;1274;65688;-31
2022/05/09 11:12:08;;;;;;;3.70;1.20;;;;;;101803.48;;;;107192;1274;65642;-30
2022/05/09 11:14:46;;;;;;;4.50;1.40;;;;;;101799.93;;;;107192;1274;65678;-33
2022/05/09 11:17:43;;;;;;;5.10;2.20;;;;;;101793.46;;;;107145;1274;65578;-32
2022/05/09 11:20:39;;;;;;;4.50;1.40;;;;;;101797.69;;;;107197;1274;65752;-31
2022/05/09 11:23:21;;;;;;;2.90;1.00;;;;;;101789.85;;;;107229;1272;66703;-29
2022/05/09 11:26:16;;;;;;;5.30;1.30;;;;;;101782.27;;;;107154;1274;65564;-29
2022/05/09 11:28:52;;;;;;;5.50;1.40;;;;;;101777.50;;;;107197;1274;65563;-29
2022/05/09 11:32:27;;;;;;;3.90;1.20;;;;;;101779.59;;;;107229;1274;65707;-32
2022/05/09 11:34:54;;;;;;;5.40;1.60;;;;;;101784.21;;;;107200;1274;65567;-31
2022/05/09 11:38:04;;;;;;;4.70;1.50;;;;;;101781.58;;;;107213;1274;66234;-29
2022/05/09 11:40:58;;;;;;;6.60;1.50;;;;;;101775.23;;;;106948;1274;65656;-33
2022/05/09 11:44:04;;;;;;;4.90;1.60;;;;;;101775.96;;;;107149;1274;65688;-31
2022/05/09 11:46:58;;;;;;;4.40;1.30;;;;;;101771.77;;;;107231;1274;65552;-29
2022/05/09 11:49:53;;;;;;;5.40;1.50;;;;;;101772.14;;;;107168;1274;66290;-33
2022/05/09 11:52:27;;;;;;;5.20;1.40;;;;;;101763.82;;;;107217;1274;68964;-33
2022/05/09 11:55:21;;;;;;;5.40;1.40;;;;;;101764.24;;;;107123;1274;65651;-33
2022/05/09 11:57:59;;;;;;;5.60;1.20;;;;;;101764.25;;;;107245;1274;65563;-33
2022/05/09 12:00:26;;;;;;;4.00;1.30;;;;;;101761.16;;;;107129;1274;66251;-35
2022/05/09 12:03:09;;;;;;;6.10;1.40;;;;;;101760.73;;;;103936;1309;598504;-33
2022/05/09 12:05:38;;;;;;;3.60;1.00;;;;;;101759.21;;;;106838;1281;62330;-33
2022/05/09 12:08:08;;;;;;;3.80;1.20;;;;;;101757.30;;;;106834;1281;62367;-31
2022/05/09 12:10:38;;;;;;;5.50;1.40;;;;;;101754.45;;;;106782;1281;64026;-30
2022/05/09 12:13:24;;;;;;;5.80;1.30;;;;;;101755.05;;;;106875;1281;64424;-31
2022/05/09 12:15:55;;;;;;;4.20;1.20;;;;;;101748.89;;;;106546;1281;448628;-33
2022/05/09 12:18:29;;;;;;;3.70;1.30;;;;;;101749.59;;;;106979;1281;62398;-29
2022/05/09 12:21:13;;;;;;;3.60;1.10;;;;;;101747.77;;;;106945;1281;62411;-31
2022/05/09 12:23:44;;;;;;;4.40;1.30;;;;;;101752.17;;;;106962;1281;62280;-31
2022/05/09 12:26:32;;;;;;;5.00;1.60;;;;;;101741.73;;;;106986;1281;65224;-32
2022/05/09 12:29:26;;;;;;;6.00;1.50;;;;;;101732.86;;;;106957;1281;63073;-33
2022/05/09 12:32:05;;;;;;;5.30;1.30;;;;;;101737.83;;;;106953;1281;63119;-30
2022/05/09 12:34:43;;;;;;;5.60;1.10;;;;;;101732.04;;;;106973;1279;63224;-33
2022/05/09 12:37:22;;;;;;;7.10;1.50;;;;;;101726.73;;;;106962;1281;63147;-30
2022/05/09 12:39:53;;;;;;;4.10;1.20;;;;;;101730.69;;;;107024;1281;65910;-29
2022/05/09 12:42:32;;;;;;;4.60;1.40;;;;;;101724.61;;;;106965;1281;63211;-35
2022/05/09 12:45:04;;;;;;;4.70;1.20;;;;;;101716.27;;;;106975;1280;63333;-33
2022/05/09 12:47:35;;;;;;;3.70;1.40;;;;;;101714.09;;;;106984;1281;63230;-32
2022/05/09 12:50:24;;;;;;;3.80;1.30;;;;;;101711.79;;;;106977;1281;63264;-34
2022/05/09 12:53:14;;;;;;;5.40;1.30;;;;;;101719.28;;;;106933;1281;65721;-33
2022/05/09 12:55:56;;;;;;;3.60;1.20;;;;;;101712.16;;;;106950;1281;63134;-32
2022/05/09 12:58:40;;;;;;;3.50;1.30;;;;;;101710.34;;;;106963;1281;63347;-45
2022/05/09 13:01:20;;;;;;;4.20;1.00;;;;;;101702.50;;;;106938;1281;63235;-46
2022/05/09 13:04:03;;;;;;;3.40;1.00;;;;;;101702.76;;;;106966;1281;63126;-30
2022/05/09 13:06:40;;;;;;;3.70;1.30;;;;;;101699.69;;;;106960;1280;64467;-30
2022/05/09 13:09:27;;;;;;;4.80;1.20;;;;;;101698.72;;;;106819;1281;63224;-34
2022/05/09 13:12:03;;;;;;;5.30;1.60;;;;;;101695.59;;;;106931;1281;63829;-31
2022/05/09 13:14:45;;;;;;;3.60;1.00;;;;;;101691.33;;;;106939;1281;63135;-32
2022/05/09 13:17:44;;;;;;;3.10;1.20;;;;;;101687.96;;;;106959;1281;63227;-34
2022/05/09 13:20:17;;;;;;;4.60;1.20;;;;;;101693.17;;;;106963;1280;64467;-30
2022/05/09 13:22:50;;;;;;;5.20;1.40;;;;;;101690.14;;;;106993;1280;63122;-31
2022/05/09 13:25:40;;;;;;;5.30;1.30;;;;;;101684.27;;;;107013;1280;63096;-32
2022/05/09 13:28:13;;;;;;;4.70;1.50;;;;;;101674.16;;;;106934;1280;63150;-31
2022/05/09 13:30:47;;;;;;;7.50;1.30;;;;;;101663.52;;;;107000;1280;63128;-33
2022/05/09 13:33:18;;;;;;;6.30;1.40;;;;;;101665.73;;;;106938;1280;64455;-32